• Join FlightAware (Why Join?)
  • Login
  • US Flag 
12:56AM EDT


 

Airport Tracker/Info


-or-


 

Live Flight TrackerFlight Track Log ✈ AFL150 ✈ 29-Jul-2013 ✈ UUEE / SVO - MUHA / HAV

Flight Track Log - Related Links

Times and Time Zones

All times are in EDT time to prevent confusion due to time zone crossing. See the AFL150 flight status page for this flight to view local times or setup timezone preferences in your user account.

Time Position Orientation Groundspeed Altitude Reporting Facility
EDT Latitude Longitude Course Direction KTS MPH feet Rate Location/Type
06:13AM 55.9780 37.4580 75° East 181 208 1,400  Level FlightAware
06:14AM 55.9830 37.5020 79° East 180 207 2,600 1,980 Climbing FlightAware
06:14AM 55.9890 37.5370 73° East 175 201 3,300 1,560 Climbing FlightAware
06:14AM 55.9940 37.5710 75° East 178 205 3,900 1,080 Climbing FlightAware
06:15AM 56.0020 37.6190 73° East 212 244 4,300 900 Climbing FlightAware
06:15AM 56.0040 37.6350 77° East 222 255 4,500 1,200 Climbing FlightAware
06:16AM 56.0130 37.6940 75° East 258 297 5,100 1,440 Climbing FlightAware
06:16AM 56.0200 37.7240 67° East 260 299 5,600 2,160 Climbing FlightAware
06:16AM 56.0280 37.7380 44° Northeast 258 297 6,000 2,640 Climbing FlightAware
06:16AM 56.0450 37.7490 20° North 257 296 6,700 2,580 Climbing FlightAware
06:17AM 56.0810 37.7400 352° North 261 300 8,000 2,400 Climbing FlightAware
06:17AM 56.1090 37.7230 341° North 271 312 8,900 2,280 Climbing FlightAware
06:17AM 56.1210 37.6990 312° West 282 325 9,500 2,400 Climbing FlightAware
06:18AM 56.1280 37.6630 289° West 292 336 10,100 1,500 Climbing FlightAware
06:18AM 56.1440 37.5640 286° West 328 377 10,900 1,080 Climbing FlightAware
06:19AM 56.1610 37.4530 285° West 366 421 11,600 1,260 Climbing FlightAware
06:19AM 56.1700 37.3960 286° West 375 432 12,200 2,040 Climbing FlightAware
06:21AM 56.2020 37.1820 285° West 390 449 14,800 2,340 Climbing FlightAware
06:21AM 56.2260 37.0250 285° West 397 457 17,000 2,040 Climbing FlightAware
06:22AM 56.2430 36.9080 285° West 408 470 17,700 1,620 Climbing FlightAware
06:23AM 56.2580 36.8060 285° West 411 473 18,800 1,860 Climbing FlightAware
06:24AM 56.2940 36.5600 285° West 425 489 20,900 1,740 Climbing FlightAware
06:24AM 56.3140 36.4210 285° West 431 496 22,100 1,620 Climbing FlightAware
06:25AM 56.3370 36.2650 285° West 439 505 23,200 1,320 Climbing FlightAware
06:26AM 56.3570 36.1190 284° West 449 517 24,000 1,260 Climbing FlightAware
06:27AM 56.3800 35.9580 285° West 457 526 25,000 1,320 Climbing FlightAware
06:27AM 56.4000 35.8110 284° West 460 529 25,900 1,260 Climbing FlightAware
06:28AM 56.4250 35.6400 285° West 468 539 26,800 1,200 Climbing FlightAware
06:29AM 56.4730 35.5100 304° West 467 537 27,600 1,080 Climbing FlightAware
06:29AM 56.5350 35.4370 327° Northwest 466 536 28,200 1,020 Climbing FlightAware
06:30AM 56.6170 35.4000 346° North 469 540 28,900 840 Climbing FlightAware
06:31AM 56.7160 35.3620 348° North 479 551 29,400 1,020 Climbing FlightAware
06:31AM 56.8020 35.3290 348° North 472 543 30,400 1,740 Climbing FlightAware
06:32AM 56.8930 35.2940 348° North 454 522 31,900 1,920 Climbing FlightAware
06:33AM 56.9760 35.2620 348° North 438 504 33,200 1,320 Climbing FlightAware
06:34AM 57.0830 35.2210 348° North 437 503 34,000 480 Climbing FlightAware
06:34AM 57.1530 35.1940 348° North 441 507 34,000  Level FlightAware
06:35AM 57.2440 35.1580 348° North 439 505 34,000  Level FlightAware
06:36AM 57.3200 35.1280 348° North 439 505 34,000  Level FlightAware
06:36AM 57.3900 35.1010 348° North 437 503 34,000  Level FlightAware
06:37AM 57.5010 35.0570 348° North 437 503 34,000  Level FlightAware
06:38AM 57.5870 35.0230 348° North 437 503 34,000  Level FlightAware
06:39AM 57.6670 34.9810 344° North 439 505 34,000  Level FlightAware
06:39AM 57.7490 34.9100 335° Northwest 441 507 34,000  Level FlightAware
06:40AM 57.8190 34.8250 327° Northwest 443 510 34,000  Level FlightAware
06:41AM 57.8920 34.7250 324° Northwest 439 505 34,000  Level FlightAware
06:41AM 57.9490 34.6460 324° Northwest 437 503 34,000  Level FlightAware
06:42AM 58.0210 34.5460 324° Northwest 436 502 34,000  Level FlightAware
06:43AM 58.0870 34.4530 323° Northwest 436 502 34,000  Level FlightAware
06:43AM 58.1510 34.3640 324° Northwest 432 497 34,000  Level FlightAware
06:44AM 58.2190 34.2610 321° Northwest 431 496 34,000  Level FlightAware
06:45AM 58.2830 34.1620 321° Northwest 425 489 34,000  Level FlightAware
06:46AM 58.3520 34.0570 321° Northwest 423 487 34,000  Level FlightAware
06:47AM 58.4250 33.9440 321° Northwest 420 483 34,000  Level FlightAware
06:47AM 58.4820 33.8570 321° Northwest 412 474 34,000  Level FlightAware
06:48AM 58.5610 33.7340 321° Northwest 406 467 34,000  Level FlightAware
06:49AM 58.6220 33.6390 321° Northwest 406 467 34,000  Level FlightAware
06:50AM 58.6660 33.5710 321° Northwest 406 467 34,000  Level FlightAware
06:50AM 58.7250 33.4790 321° Northwest 406 467 34,000  Level FlightAware
06:51AM 58.7700 33.4090 321° Northwest 406 467 34,000  Level FlightAware
06:52AM 58.8290 33.3160 321° Northwest 406 467 34,000  Level FlightAware
06:52AM 58.8740 33.2460 321° Northwest 406 467 34,000  Level FlightAware
06:53AM 58.9350 33.1500 321° Northwest 406 467 34,000  Level FlightAware
06:54AM 58.9810 33.0780 321° Northwest 406 467 34,000  Level FlightAware
06:55AM 59.0550 32.9610 321° Northwest 406 467 34,000  Level FlightAware
06:55AM 59.1000 32.8910 321° Northwest 406 467 34,000  Level FlightAware
06:56AM 59.1460 32.8180 321° Northwest 406 467 34,000 1,500 Level FlightAware
06:57AM 59.2730 32.4050 301° West 401 461 36,000 900 Climbing FlightAware
06:58AM 59.3720 32.2060 314° West 398 458 36,000  Level FlightAware
06:59AM 59.4220 32.0980 312° West 399 459 36,000  Level FlightAware
06:59AM 59.4600 31.9830 303° West 403 464 36,000  Level FlightAware
07:00AM 59.4990 31.8230 296° West 409 471 36,000  Level FlightAware
07:01AM 59.5360 31.6540 293° West 407 468 36,000  Level FlightAware
07:02AM 59.5690 31.5000 293° West 408 470 36,000  Level FlightAware
07:03AM 59.6050 31.3330 293° West 409 471 36,000  Level FlightAware
07:04AM 59.6470 31.1360 293° West 407 468 36,000  Level FlightAware
07:05AM 59.6630 30.8560 277° West 434 499 36,000  Level FlightAware
07:05AM 59.6590 30.6770 268° West 435 501 36,000  Level FlightAware
07:06AM 59.6560 30.5310 268° West 435 501 36,000  Level FlightAware
07:07AM 59.6530 30.3420 268° West 436 502 36,000  Level FlightAware
07:08AM 59.6500 30.1750 268° West 437 503 36,000  Level FlightAware
07:08AM 59.6450 29.9590 267° West 439 505 36,000  Level FlightAware
07:09AM 59.6410 29.7800 268° West 439 505 36,000  Level FlightAware
07:10AM 59.6430 29.6240 272° West 425 489 36,000  Level FlightAware
07:11AM 59.6670 29.4050 282° West 424 488 36,000  Level FlightAware
07:12AM 59.6850 29.2380 282° West 423 487 36,000  Level FlightAware
07:12AM 59.7010 29.0840 282° West 423 487 36,000  Level FlightAware
07:13AM 59.7170 28.9350 282° West 422 486 36,000  Level FlightAware
07:13AM 59.7300 28.8060 281° West 423 487 36,000  Level FlightAware
07:14AM 59.7460 28.6450 281° West 424 488 36,000  Level FlightAware
07:15AM 59.7620 28.4930 282° West 423 487 36,000  Level FlightAware
07:16AM 59.7790 28.3210 281° West 421 484 36,000  Level FlightAware
07:16AM 59.7950 28.1520 281° West 409 471 36,000  Level FlightAware
07:17AM 59.8050 28.0530 281° West 405 466 36,000  Level FlightAware
07:18AM 59.8200 27.8960 281° West 405 466 36,000  Level FlightAware
07:18AM 59.8370 27.7080 280° West 403 464 36,000  Level FlightAware
07:19AM 59.8530 27.5390 281° West 401 461 36,000  Level FlightAware
07:19AM 59.8590 27.4750 281° West 401 461 36,000  Level FlightAware
07:20AM 59.8720 27.3280 280° West 401 461 36,000  Level FlightAware
07:21AM 59.8850 27.1800 280° West 401 461 36,000  Level FlightAware
07:21AM 59.8970 27.0390 280° West 400 460 36,000  Level FlightAware
07:22AM 59.9070 26.9310 281° West 400 460 36,000  Level FlightAware
07:23AM 59.9240 26.7320 280° West 401 461 36,000  Level FlightAware
07:24AM 59.9370 26.5760 280° West 401 461 36,000  Level FlightAware
07:24AM 59.9500 26.4230 280° West 401 461 36,000  Level FlightAware
07:25AM 59.9740 26.2600 286° West 393 452 36,000  Level FlightAware
07:26AM 60.0050 26.1290 295° West 389 448 36,000  Level FlightAware
07:26AM 60.0410 25.9850 297° West 386 444 36,000  Level FlightAware
07:27AM 60.0800 25.8280 297° West 385 443 36,000  Level FlightAware
07:28AM 60.1170 25.6790 297° West 385 443 36,000  Level FlightAware
07:28AM 60.1350 25.6040 296° West 386 444 36,000  Level FlightAware
07:29AM 60.1710 25.4570 296° West 387 445 36,000  Level FlightAware
07:30AM 60.2030 25.3280 297° West 389 448 36,000  Level FlightAware
07:31AM 60.2320 25.2070 296° West 391 450 36,000  Level FlightAware
07:31AM 60.2640 25.0730 296° West 391 450 36,000  Level FlightAware
07:32AM 60.2980 24.9330 296° West 391 450 36,000  Level FlightAware
07:32AM 60.3210 24.8340 295° West 392 451 36,000  Level FlightAware
07:33AM 60.3580 24.6780 296° West 394 453 36,000  Level FlightAware
07:34AM 60.3890 24.5460 295° West 395 455 36,000  Level FlightAware
07:35AM 60.4210 24.4110 296° West 395 455 36,000  Level FlightAware
07:35AM 60.4530 24.2730 295° West 395 455 36,000  Level FlightAware
07:36AM 60.4860 24.1430 297° West 396 456 36,000  Level FlightAware
07:37AM 60.5220 24.0090 299° West 396 456 36,000  Level FlightAware
07:37AM 60.5590 23.8700 298° West 394 453 36,000  Level FlightAware
07:38AM 60.5950 23.7300 298° West 395 455 36,000  Level FlightAware
07:39AM 60.6300 23.5990 299° West 395 455 36,000  Level FlightAware
07:39AM 60.6640 23.4660 298° West 395 455 36,000  Level FlightAware
07:40AM 60.7020 23.3170 298° West 397 457 36,000  Level FlightAware
07:41AM 60.7370 23.1800 298° West 398 458 36,000  Level FlightAware
07:41AM 60.7760 23.0290 298° West 397 457 36,000  Level FlightAware
07:42AM 60.8100 22.8950 298° West 396 456 36,000  Level FlightAware
07:43AM 60.8470 22.7460 297° West 400 460 36,000  Level FlightAware
07:44AM 60.8820 22.6070 297° West 408 470 36,000  Level FlightAware
07:44AM 60.9200 22.4540 297° West 410 472 36,000  Level FlightAware
07:45AM 60.9580 22.3040 298° West 411 473 36,000  Level FlightAware
07:46AM 60.9960 22.1780 302° West 413 475 36,000  Level FlightAware
07:46AM 61.0460 22.0190 303° West 414 476 36,000  Level FlightAware
07:47AM 61.0850 21.8900 302° West 415 478 36,000  Level FlightAware
07:48AM 61.1270 21.7510 302° West 417 480 36,000  Level FlightAware
07:49AM 61.1710 21.6050 302° West 419 482 36,000  Level FlightAware
07:49AM 61.2120 21.4660 302° West 420 483 36,000  Level FlightAware
07:50AM 61.2550 21.3210 302° West 422 486 36,000  Level FlightAware
07:51AM 61.2990 21.1720 302° West 423 487 36,000  Level FlightAware
07:51AM 61.3390 21.0380 302° West 422 486 36,000  Level FlightAware
07:52AM 61.3830 20.8850 301° West 421 484 36,000  Level FlightAware
07:53AM 61.4270 20.7320 301° West 421 484 36,000  Level FlightAware
07:53AM 61.4600 20.6180 301° West 421 484 36,000  Level FlightAware
07:54AM 61.5040 20.4670 301° West 422 486 36,000  Level FlightAware
07:55AM 61.5450 20.3220 301° West 422 486 36,000  Level FlightAware
07:55AM 61.5920 20.1530 300° West 420 483 36,000  Level FlightAware
07:56AM 61.6360 19.9960 301° West 419 482 36,000  Level FlightAware
07:57AM 61.6770 19.8500 301° West 420 483 36,000  Level FlightAware
07:58AM 61.7100 19.7300 300° West 419 482 36,000  Level FlightAware
07:58AM 61.7500 19.5850 300° West 419 482 36,000  Level FlightAware
07:59AM 61.7900 19.4330 299° West 416 479 36,000  Level FlightAware
08:00AM 61.8280 19.2710 296° West 414 476 36,000  Level FlightAware
08:00AM 61.8510 19.1490 292° West 411 473 36,000  Level FlightAware
08:01AM 61.8770 19.0090 292° West 413 475 36,000  Level FlightAware
08:02AM 61.9170 18.8010 292° West 412 474 36,000  Level FlightAware
08:02AM 61.9390 18.6810 291° West 412 474 36,000  Level FlightAware
08:03AM 61.9710 18.5140 292° West 415 478 36,000  Level FlightAware
08:04AM 61.9990 18.3630 292° West 417 480 36,000  Level FlightAware
08:04AM 62.0280 18.2030 291° West 417 480 36,000  Level FlightAware
08:05AM 62.0590 18.0360 292° West 420 483 36,000  Level FlightAware
08:06AM 62.0890 17.8710 291° West 422 486 36,000  Level FlightAware
08:06AM 62.1160 17.7240 291° West 423 487 36,000  Level FlightAware
08:07AM 62.1470 17.5460 291° West 422 486 36,000  Level FlightAware
08:08AM 62.1750 17.3900 291° West 423 487 36,000  Level FlightAware
08:09AM 62.2050 17.2210 291° West 421 484 36,000  Level FlightAware
08:09AM 62.2320 17.0650 290° West 421 484 36,000  Level FlightAware
08:10AM 62.2610 16.8980 291° West 420 483 36,000  Level FlightAware
08:11AM 62.2910 16.7250 291° West 420 483 36,000  Level FlightAware
08:11AM 62.3120 16.5990 290° West 420 483 36,000  Level FlightAware
08:12AM 62.3410 16.4280 290° West 419 482 36,000  Level FlightAware
08:13AM 62.3670 16.2700 290° West 418 481 36,000  Level FlightAware
08:13AM 62.3960 16.0960 290° West 419 482 36,000  Level FlightAware
08:14AM 62.4220 15.9400 290° West 420 483 36,000  Level FlightAware
08:15AM 62.4500 15.7660 289° West 419 482 36,000  Level FlightAware
08:15AM 62.4770 15.6010 290° West 418 481 36,000  Level FlightAware
08:16AM 62.4990 15.4580 288° West 417 480 36,000  Level FlightAware
08:17AM 62.5250 15.3000 290° West 417 480 36,000  Level FlightAware
08:17AM 62.5500 15.1380 289° West 422 486 36,000  Level FlightAware
08:18AM 62.5750 14.9750 288° West 425 489 36,000  Level FlightAware
08:19AM 62.6030 14.7980 289° West 422 486 36,000  Level FlightAware
08:21AM 62.6577 14.4090 287° West  Level Estimated
08:22AM 62.6903 14.1726 287° West  Level Estimated
08:22AM 62.6950 14.1760 287° West 419 482 36,000  Level FlightAware
08:22AM 62.7320 13.9350 289° West 426 490 36,000  Level FlightAware
08:23AM 62.7550 13.7740 287° West 428 493 36,000  Level FlightAware
08:24AM 62.7830 13.5780 287° West 429 494 36,000  Level FlightAware
08:25AM 62.8230 13.2940 287° West 439 505 36,000  Level FlightAware
08:26AM 62.8480 13.1200 288° West 436 502 36,000  Level FlightAware
08:26AM 62.8690 12.9680 287° West 438 504 36,000  Level FlightAware
08:27AM 62.8920 12.7980 287° West 440 506 36,000  Level FlightAware
08:28AM 62.9180 12.6100 287° West 443 510 36,000  Level FlightAware
08:28AM 62.9430 12.4210 286° West 445 512 36,000  Level FlightAware
08:29AM 62.9650 12.2540 286° West 452 520 36,000  Level FlightAware
08:30AM 62.9900 12.0650 286° West 459 528 36,000  Level FlightAware
08:31AM 63.0150 11.8690 286° West 463 533 36,000  Level FlightAware
08:31AM 63.0380 11.6890 286° West 465 535 36,000  Level FlightAware
08:32AM 63.0640 11.4870 286° West 467 537 36,000  Level FlightAware
08:33AM 63.0870 11.3010 285° West 470 541 36,000  Level FlightAware
08:33AM 63.1120 11.1010 286° West 473 544 36,000  Level FlightAware
08:34AM 63.1340 10.9130 285° West 472 543 36,000  Level FlightAware
08:35AM 63.1600 10.7040 285° West 473 544 36,000  Level FlightAware
08:35AM 63.1770 10.5610 285° West 473 544 36,000  Level FlightAware
08:36AM 63.2020 10.3460 285° West 473 544 36,000  Level FlightAware
08:37AM 63.2240 10.1560 284° West 475 547 36,000  Level FlightAware
08:37AM 63.2470 9.9480 284° West 476 548 36,000  Level FlightAware
08:38AM 63.2680 9.7670 285° West 476 548 36,000  Level FlightAware
08:39AM 63.2890 9.5720 284° West 474 545 36,000  Level FlightAware
08:39AM 63.3090 9.3870 284° West 476 548 36,000  Level FlightAware
08:42AM 63.3585 8.8727 282° West  Level Estimated
08:43AM 63.3816 8.6251 282° West  Level Estimated
08:44AM 63.4043 8.3772 282° West  Level Estimated
08:44AM 63.4290 8.2400 282° West 475 547 36,000  Level FlightAware
08:44AM 63.4490 8.0370 283° West 475 547 36,000  Level FlightAware
08:45AM 63.4700 7.8200 282° West 477 549 36,000  Level FlightAware
08:45AM 63.4860 7.6610 283° West 478 550 36,000  Level FlightAware
08:46AM 63.5010 7.4940 281° West 479 551 36,000  Level FlightAware
08:47AM 63.5180 7.3180 282° West 481 554 36,000  Level FlightAware
08:47AM 63.5340 7.1390 281° West 480 552 36,000  Level FlightAware
08:48AM 63.5510 6.9610 282° West 480 552 36,000  Level FlightAware
08:48AM 63.5650 6.8050 281° West 477 549 36,000  Level FlightAware
08:49AM 63.5870 6.5480 281° West 478 550 36,000  Level FlightAware
08:50AM 63.6040 6.3540 281° West 479 551 36,000  Level FlightAware
08:51AM 63.6180 6.1810 280° West 480 552 36,000  Level FlightAware
08:51AM 63.6320 6.0230 281° West 479 551 36,000  Level FlightAware
08:52AM 63.6470 5.8210 280° West 479 551 36,000  Level FlightAware
08:52AM 63.6640 5.6310 281° West 479 551 36,000  Level FlightAware
08:53AM 63.6760 5.4720 280° West 486 559 36,000  Level FlightAware
08:53AM 63.6910 5.2880 281° West 488 562 36,000  Level FlightAware
08:54AM 63.7030 5.1280 280° West 488 562 36,000  Level FlightAware
08:55AM 63.7180 4.9300 280° West 487 560 36,000  Level FlightAware
08:55AM 63.7310 4.7540 280° West 486 559 36,000  Level FlightAware
08:56AM 63.7400 4.6280 279° West 485 558 36,000  Level FlightAware
08:56AM 63.7560 4.4090 279° West 484 557 36,000  Level FlightAware
08:57AM 63.7670 4.2540 279° West 485 558 36,000  Level FlightAware
08:58AM 63.7800 4.0720 279° West 487 560 36,000  Level FlightAware
08:58AM 63.7930 3.8700 278° West 489 563 36,000  Level FlightAware
08:59AM 63.8020 3.7040 277° West 489 563 36,000  Level FlightAware
08:59AM 63.8180 3.4990 280° West 490 564 36,000  Level FlightAware
09:00AM 63.8280 3.3370 278° West 490 564 36,000  Level FlightAware
09:01AM 63.8410 3.1290 278° West 491 565 36,000  Level FlightAware
09:01AM 63.8530 2.9360 278° West 488 562 36,000  Level FlightAware
09:02AM 63.8630 2.7720 278° West 488 562 36,000  Level FlightAware
09:03AM 63.8730 2.6160 278° West 488 562 36,000  Level FlightAware
09:03AM 63.8830 2.4610 278° West 488 562 36,000  Level FlightAware
09:04AM 63.8930 2.2970 278° West 488 562 36,000  Level FlightAware
09:05AM 63.9020 2.1410 278° West 488 562 36,000  Level FlightAware
09:05AM 63.9120 1.9860 278° West 488 562 36,000  Level FlightAware
09:06AM 63.9220 1.8300 278° West 488 562 36,000  Level FlightAware
09:06AM 63.9310 1.6700 277° West 488 562 36,000  Level FlightAware
09:07AM 63.9400 1.5230 278° West 488 562 36,000  Level FlightAware
09:07AM 63.9500 1.3670 278° West 488 562 36,000  Level FlightAware
09:08AM 63.9600 1.2030 278° West 488 562 36,000  Level FlightAware
09:09AM 63.9700 1.0470 278° West 488 562 36,000  Level FlightAware
09:09AM 63.9800 0.8870 278° West 488 562 36,000  Level FlightAware
09:10AM 63.9860 0.3390 272° West 481 554 36,000  Level FlightAware
09:10AM 63.9930 0.1800 276° West 482 555 36,000  Level FlightAware
09:11AM 64.0000 -0.0030 275° West 483 556 36,000  Level FlightAware
09:12AM 64.0050 -0.1140 276° West 483 556 36,000  Level FlightAware
09:12AM 64.0130 -0.3750 274° West 486 559 36,000  Level FlightAware
09:13AM 64.0180 -0.5410 274° West 487 560 36,000  Level FlightAware
09:13AM 64.0230 -0.7170 274° West 488 562 36,000  Level FlightAware
09:14AM 64.0290 -0.9040 274° West 488 562 36,000  Level FlightAware
09:14AM 64.0330 -1.0480 274° West 489 563 36,000  Level FlightAware
09:15AM 64.0370 -1.2240 273° West 489 563 36,000  Level FlightAware
09:16AM 64.0400 -1.3730 273° West 489 563 36,000  Level FlightAware
09:16AM 64.0440 -1.5480 273° West 489 563 36,000  Level FlightAware
09:17AM 64.0520 -1.8380 274° West 493 567 36,000  Level FlightAware
09:18AM 64.0560 -2.0270 273° West 492 566 36,000  Level FlightAware
09:18AM 64.0590 -2.1990 272° West 491 565 36,000  Level FlightAware
09:19AM 64.0630 -2.3810 273° West 490 564 36,000  Level FlightAware
09:19AM 64.0660 -2.5680 272° West 490 564 36,000  Level FlightAware
09:20AM 64.0680 -2.7030 272° West 489 563 36,000  Level FlightAware
09:20AM 64.0690 -2.8790 271° West 489 563 36,000  Level FlightAware
09:21AM 64.0710 -3.0370 272° West 489 563 36,000  Level FlightAware
09:22AM 64.0720 -3.1960 271° West 489 563 36,000  Level FlightAware
09:22AM 64.0780 -3.4540 273° West 495 570 36,000  Level FlightAware
09:23AM 64.0800 -3.6450 271° West 496 571 36,000  Level FlightAware
09:23AM 64.0820 -3.8500 271° West 497 572 36,000  Level FlightAware
09:24AM 64.0830 -4.0400 271° West 496 571 36,000  Level FlightAware
09:25AM 64.0840 -4.2060 271° West 495 570 36,000  Level FlightAware
09:25AM 64.0850 -4.3780 271° West 494 568 36,000  Level FlightAware
09:26AM 64.0860 -4.5670 271° West 494 568 36,000  Level FlightAware
09:26AM 64.0860 -4.7640 270° West 495 570 36,000  Level FlightAware
09:27AM 64.0860 -4.9410 270° West 495 570 36,000  Level FlightAware
09:28AM 64.0860 -5.1500 270° West 494 568 36,000  Level FlightAware
09:28AM 64.0860 -5.3450 270° West 493 567 36,000  Level FlightAware
09:29AM 64.0850 -5.5150 269° West 493 567 36,000  Level FlightAware
09:29AM 64.0850 -5.7050 270° West 492 566 36,000  Level FlightAware
09:30AM 64.0840 -5.8930 269° West 493 567 36,000  Level FlightAware
09:31AM 64.0830 -6.0500 269° West 494 568 36,000  Level FlightAware
09:31AM 64.0810 -6.2430 269° West 494 568 36,000  Level FlightAware
09:32AM 64.0790 -6.4410 269° West 491 565 36,000  Level FlightAware
09:32AM 64.0770 -6.6020 268° West 490 564 36,000  Level FlightAware
09:33AM 64.0750 -6.7870 269° West 488 562 36,000  Level FlightAware
09:33AM 64.0730 -6.9540 269° West 487 560 36,000  Level FlightAware
09:34AM 64.0710 -7.1450 269° West 487 560 36,000  Level FlightAware
09:35AM 64.0680 -7.3320 268° West 488 562 36,000  Level FlightAware
09:35AM 64.0640 -7.5180 267° West 490 564 36,000  Level FlightAware
09:36AM 64.0610 -7.6870 268° West 491 565 36,000  Level FlightAware
09:37AM 64.0570 -7.8510 267° West 491 565 36,000  Level FlightAware
09:37AM 64.0520 -8.1410 268° West 494 568 36,000  Level FlightAware
09:38AM 64.0490 -8.2920 267° West 494 568 36,000  Level FlightAware
09:39AM 64.0450 -8.4560 267° West 494 568 36,000  Level FlightAware
09:39AM 64.0410 -8.6160 267° West 494 568 36,000  Level FlightAware
09:40AM 64.0380 -8.7710 268° West 494 568 36,000  Level FlightAware
09:40AM 64.0340 -8.9350 267° West 494 568 36,000  Level FlightAware
09:41AM 64.0300 -9.0940 267° West 494 568 36,000  Level FlightAware
09:42AM 64.0260 -9.2580 267° West 494 568 36,000  Level FlightAware
09:42AM 64.0220 -9.4220 267° West 494 568 36,000  Level FlightAware
09:43AM 64.0190 -9.5730 267° West 494 568 36,000  Level FlightAware
09:43AM 64.0000 -10.0100 265° West 491 565 36,000  Level FlightAware
09:44AM 63.9890 -10.1770 262° West 490 564 36,000  Level FlightAware
09:44AM 63.9780 -10.3520 262° West 490 564 36,000  Level FlightAware
09:45AM 63.9660 -10.5330 261° West 490 564 36,000  Level FlightAware
09:46AM 63.9540 -10.7130 261° West 491 565 36,000  Level FlightAware
09:46AM 63.9410 -10.9000 261° West 490 564 36,000  Level FlightAware
09:47AM 63.9290 -11.0700 261° West 490 564 36,000  Level FlightAware
09:47AM 63.9170 -11.2390 261° West 489 563 36,000  Level FlightAware
09:48AM 63.9030 -11.4340 261° West 489 563 36,000  Level FlightAware
09:49AM 63.8900 -11.6100 261° West 489 563 36,000  Level FlightAware
09:49AM 63.8780 -11.7780 261° West 490 564 36,000  Level FlightAware
09:50AM 63.8640 -11.9580 260° West 490 564 36,000  Level FlightAware
09:50AM 63.8500 -12.1440 260° West 490 564 36,000  Level FlightAware
09:51AM 63.8360 -12.3150 260° West 490 564 36,000  Level FlightAware
09:51AM 63.8230 -12.4770 260° West 490 564 36,000  Level FlightAware
09:52AM 63.8090 -12.6580 260° West 491 565 36,000  Level FlightAware
09:53AM 63.7930 -12.8430 259° West 491 565 36,000  Level FlightAware
09:53AM 63.7780 -13.0250 260° West 491 565 36,000  Level FlightAware
09:54AM 63.7660 -13.1670 259° West 492 566 36,000  Level FlightAware
09:54AM 63.7530 -13.3190 259° West 492 566 36,000  Level FlightAware
09:55AM 63.7360 -13.5110 259° West 493 567 36,000  Level FlightAware
09:55AM 63.7200 -13.6950 259° West 494 568 36,000  Level FlightAware
09:56AM 63.7050 -13.8610 259° West 494 568 36,000  Level FlightAware
09:57AM 63.6880 -14.0440 258° West 493 567 36,000  Level FlightAware
09:57AM 63.6710 -14.2250 258° West 492 566 36,000  Level FlightAware
09:58AM 63.6570 -14.3740 258° West 491 565 36,000  Level FlightAware
09:58AM 63.6390 -14.5640 258° West 491 565 36,000  Level FlightAware
09:59AM 63.6210 -14.7520 258° West 492 566 36,000  Level FlightAware
09:59AM 63.6050 -14.9110 257° West 492 566 36,000  Level FlightAware
10:00AM 63.5880 -15.0880 258° West 491 565 36,000  Level FlightAware
10:01AM 63.5700 -15.2600 257° West 491 565 36,000  Level FlightAware
10:01AM 63.5550 -15.4070 257° West 490 564 36,000  Level FlightAware
10:02AM 63.5400 -15.5530 257° West 489 563 36,000  Level FlightAware
10:02AM 63.5200 -15.7440 257° West 490 564 36,000  Level FlightAware
10:03AM 63.5020 -15.9200 257° West 491 565 36,000  Level FlightAware
10:03AM 63.4840 -16.0790 256° West 492 566 36,000  Level FlightAware
10:04AM 63.4670 -16.2360 256° West 492 566 36,000  Level FlightAware
10:05AM 63.4500 -16.3990 257° West 492 566 36,000  Level FlightAware
10:05AM 63.4300 -16.5750 256° West 490 564 36,000  Level FlightAware
10:06AM 63.4120 -16.7330 256° West 489 563 36,000  Level FlightAware
10:06AM 63.3920 -16.9100 256° West 489 563 36,000  Level FlightAware
10:07AM 63.3720 -17.0850 256° West 487 560 36,000  Level FlightAware
10:07AM 63.3530 -17.2490 256° West 486 559 36,000  Level FlightAware
10:08AM 63.3320 -17.4230 255° West 484 557 36,000  Level FlightAware
10:09AM 63.3120 -17.5950 256° West 483 556 36,000  Level FlightAware
10:09AM 63.2920 -17.7580 255° West 482 555 36,000  Level FlightAware
10:10AM 63.2720 -17.9210 255° West 480 552 36,000  Level FlightAware
10:10AM 63.2530 -18.0830 255° West 479 551 36,000  Level FlightAware
10:11AM 63.2320 -18.2480 254° West 477 549 36,000  Level FlightAware
10:11AM 63.2140 -18.3910 254° West 477 549 36,000  Level FlightAware
10:12AM 63.1900 -18.5790 254° West 478 550 36,000  Level FlightAware
10:13AM 63.1680 -18.7470 254° West 478 550 36,000  Level FlightAware
10:13AM 63.1470 -18.9090 254° West 477 549 36,000  Level FlightAware
10:14AM 63.1260 -19.0730 254° West 476 548 36,000  Level FlightAware
10:14AM 63.1040 -19.2410 254° West 476 548 36,000  Level FlightAware
10:15AM 63.0830 -19.4000 254° West 475 547 36,000  Level FlightAware
10:16AM 63.0610 -19.5590 253° West 474 545 36,000  Level FlightAware
10:16AM 63.0380 -19.7250 253° West 475 547 36,000  Level FlightAware
10:17AM 63.0170 -19.8830 254° West 476 548 36,000  Level FlightAware
10:17AM 62.9960 -20.0620 256° West 480 552 36,000  Level FlightAware
10:18AM 62.9870 -20.2090 262° West 481 554 36,000  Level FlightAware
10:19AM 62.9750 -20.3960 262° West 481 554 36,000  Level FlightAware
10:19AM 62.9650 -20.5590 262° West 483 556 36,000  Level FlightAware
10:20AM 62.9540 -20.7240 262° West 483 556 36,000  Level FlightAware
10:20AM 62.9420 -20.8980 261° West 484 557 36,000  Level FlightAware
10:21AM 62.9300 -21.0730 262° West 485 558 36,000  Level FlightAware
10:21AM 62.9200 -21.2190 262° West 486 559 36,000  Level FlightAware
10:22AM 62.9070 -21.3950 261° West 487 560 36,000  Level FlightAware
10:23AM 62.8930 -21.5800 261° West 489 563 36,000  Level FlightAware
10:23AM 62.8810 -21.7470 261° West 490 564 36,000  Level FlightAware
10:24AM 62.8700 -21.8990 261° West 489 563 36,000  Level FlightAware
10:24AM 62.8560 -22.0730 260° West 488 562 36,000  Level FlightAware
10:25AM 62.8390 -22.2960 261° West 487 560 36,000  Level FlightAware
10:26AM 62.8270 -22.4520 261° West 488 562 36,000  Level FlightAware
10:26AM 62.8120 -22.6340 260° West 488 562 36,000  Level FlightAware
10:27AM 62.7970 -22.8110 260° West 489 563 36,000  Level FlightAware
10:27AM 62.7840 -22.9670 260° West 490 564 36,000  Level FlightAware
10:28AM 62.7700 -23.1430 260° West 490 564 36,000  Level FlightAware
10:29AM 62.7560 -23.2970 259° West 488 562 36,000  Level FlightAware
10:29AM 62.7410 -23.4730 260° West 485 558 36,000  Level FlightAware
10:30AM 62.7260 -23.6400 259° West 485 558 36,000  Level FlightAware
10:30AM 62.7100 -23.8180 259° West 487 560 36,000  Level FlightAware
10:31AM 62.6950 -23.9880 259° West 489 563 36,000  Level FlightAware
10:31AM 62.6790 -24.1540 258° West 490 564 36,000  Level FlightAware
10:32AM 62.6630 -24.3330 259° West 489 563 36,000  Level FlightAware
10:33AM 62.6500 -24.4680 258° West 489 563 36,000  Level FlightAware
10:33AM 62.6340 -24.6400 259° West 487 560 36,000  Level FlightAware
10:34AM 62.6160 -24.8240 258° West 486 559 36,000  Level FlightAware
10:34AM 62.5990 -24.9940 258° West 485 558 36,000  Level FlightAware
10:35AM 62.5820 -25.1610 258° West 485 558 36,000  Level FlightAware
10:36AM 62.5670 -25.3070 257° West 485 558 36,000  Level FlightAware
10:36AM 62.5490 -25.4800 257° West 484 557 36,000  Level FlightAware
10:37AM 62.5320 -25.6480 258° West 485 558 36,000  Level FlightAware
10:37AM 62.5140 -25.8170 257° West 486 559 36,000  Level FlightAware
10:38AM 62.4960 -25.9840 257° West 486 559 36,000  Level FlightAware
10:38AM 62.4800 -26.1400 258° West 486 559 36,000  Level FlightAware
10:39AM 62.4620 -26.3050 257° West 487 560 36,000  Level FlightAware
10:40AM 62.4420 -26.4790 256° West 486 559 36,000  Level FlightAware
10:40AM 62.4250 -26.6310 256° West 485 558 36,000  Level FlightAware
10:41AM 62.4060 -26.7980 256° West 487 560 36,000  Level FlightAware
10:41AM 62.3860 -26.9750 256° West 487 560 36,000  Level FlightAware
10:42AM 62.3690 -27.1220 256° West 486 559 36,000  Level FlightAware
10:43AM 62.3480 -27.3060 256° West 487 560 36,000  Level FlightAware
10:43AM 62.3300 -27.4570 256° West 488 562 36,000  Level FlightAware
10:44AM 62.3080 -27.6390 255° West 489 563 36,000  Level FlightAware
10:44AM 62.2910 -27.7800 256° West 489 563 36,000  Level FlightAware
10:45AM 62.2700 -27.9530 255° West 491 565 36,000  Level FlightAware
10:46AM 62.2480 -28.1260 255° West 491 565 36,000  Level FlightAware
10:46AM 62.2290 -28.2780 255° West 492 566 36,000  Level FlightAware
10:47AM 62.2070 -28.4560 255° West 492 566 36,000  Level FlightAware
10:47AM 62.1870 -28.6110 255° West 491 565 36,000  Level FlightAware
10:48AM 62.1640 -28.7900 255° West 491 565 36,000  Level FlightAware
10:49AM 62.1330 -29.0230 254° West 490 564 36,000  Level FlightAware
10:49AM 62.1100 -29.2000 255° West 488 562 36,000  Level FlightAware
10:50AM 62.0880 -29.3580 253° West 490 564 36,000  Level FlightAware
10:50AM 62.0670 -29.5170 254° West 492 566 36,000  Level FlightAware
10:51AM 62.0340 -29.7530 253° West 493 567 36,000  Level FlightAware
10:52AM 62.0080 -29.9390 253° West 493 567 36,000  Level FlightAware
10:53AM 61.9830 -30.0860 250° West 493 567 36,000  Level FlightAware
10:53AM 61.9590 -30.2260 250° West 493 567 36,000  Level FlightAware
10:54AM 61.9340 -30.3690 250° West 493 567 36,000  Level FlightAware
10:54AM 61.9100 -30.5090 250° West 493 567 36,000  Level FlightAware
10:55AM 61.8870 -30.6480 251° West 493 567 36,000  Level FlightAware
10:56AM 61.8620 -30.7910 250° West 493 567 36,000  Level FlightAware
10:56AM 61.8380 -30.9300 250° West 493 567 36,000  Level FlightAware
10:57AM 61.8140 -31.0690 250° West 493 567 36,000  Level FlightAware
10:57AM 61.7900 -31.2070 250° West 493 567 36,000  Level FlightAware
10:58AM 61.7660 -31.3460 250° West 493 567 36,000  Level FlightAware
10:59AM 61.7430 -31.4850 251° West 493 567 36,000  Level FlightAware
10:59AM 61.7190 -31.6230 250° West 493 567 36,000  Level FlightAware
11:00AM 61.6930 -31.7690 249° West 493 567 36,000  Level FlightAware
11:01AM 61.6690 -31.9110 250° West 493 567 36,000  Level FlightAware
11:01AM 61.6450 -32.0490 250° West 493 567 36,000  Level FlightAware
11:02AM 61.6200 -32.1910 250° West 493 567 36,000  Level FlightAware
11:04AM 61.5285 -32.5964 245° Southwest  Level Estimated
11:05AM 61.4757 -32.8269 244° Southwest  Level Estimated
11:06AM 61.4226 -33.0567 244° Southwest  Level Estimated
11:07AM 61.3690 -33.2857 244° Southwest  Level Estimated
11:08AM 61.3150 -33.5139 244° Southwest  Level Estimated
11:09AM 61.2607 -33.7413 244° Southwest  Level Estimated
11:10AM 61.2060 -33.9679 243° Southwest  Level Estimated
11:11AM 61.1509 -34.1938 243° Southwest  Level Estimated
11:12AM 61.0954 -34.4188 243° Southwest  Level Estimated
11:13AM 61.0396 -34.6431 243° Southwest  Level Estimated
11:14AM 60.9833 -34.8666 243° Southwest  Level Estimated
11:15AM 60.9268 -35.0892 242° Southwest  Level Estimated
11:16AM 60.8698 -35.3111 242° Southwest  Level Estimated
11:17AM 60.8125 -35.5322 242° Southwest  Level Estimated
11:18AM 60.7548 -35.7525 242° Southwest  Level Estimated
11:19AM 60.6968 -35.9720 242° Southwest  Level Estimated
11:20AM 60.6384 -36.1908 242° Southwest  Level Estimated
11:21AM 60.5797 -36.4087 241° Southwest  Level Estimated
11:22AM 60.5206 -36.6258 241° Southwest  Level Estimated
11:23AM 60.4611 -36.8422 241° Southwest  Level Estimated
11:24AM 60.4013 -37.0577 241° Southwest  Level Estimated
11:25AM 60.3412 -37.2724 241° Southwest  Level Estimated
11:26AM 60.2807 -37.4864 240° Southwest  Level Estimated
11:27AM 60.2198 -37.6996 240° Southwest  Level Estimated
11:28AM 60.1587 -37.9119 240° Southwest  Level Estimated
11:29AM 60.0972 -38.1235 240° Southwest  Level Estimated
11:30AM 60.0353 -38.3343 240° Southwest  Level Estimated
11:31AM 59.9731 -38.5443 239° Southwest  Level Estimated
11:32AM 59.9106 -38.7535 239° Southwest  Level Estimated
11:33AM 59.8478 -38.9620 239° Southwest  Level Estimated
11:34AM 59.7846 -39.1696 239° Southwest  Level Estimated
11:35AM 59.7211 -39.3764 239° Southwest  Level Estimated
11:36AM 59.6573 -39.5825 239° Southwest  Level Estimated
11:37AM 59.5931 -39.7878 238° Southwest  Level Estimated
11:38AM 59.5287 -39.9923 238° Southwest  Level Estimated
11:39AM 59.4639 -40.1960 238° Southwest  Level Estimated
11:40AM 59.3988 -40.3989 238° Southwest  Level Estimated
11:41AM 59.3334 -40.6011 238° Southwest  Level Estimated
11:42AM 59.2677 -40.8024 237° Southwest  Level Estimated
11:43AM 59.2016 -41.0031 237° Southwest  Level Estimated
11:44AM 59.1353 -41.2029 237° Southwest  Level Estimated
11:45AM 59.0686 -41.4019 237° Southwest  Level Estimated
11:46AM 59.0017 -41.6002 237° Southwest  Level Estimated
11:47AM 58.9344 -41.7977 237° Southwest  Level Estimated
11:48AM 58.8669 -41.9944 236° Southwest  Level Estimated
11:49AM 58.7990 -42.1904 236° Southwest  Level Estimated
11:50AM 58.7309 -42.3856 236° Southwest  Level Estimated
11:51AM 58.6624 -42.5800 236° Southwest  Level Estimated
11:52AM 58.5937 -42.7737 236° Southwest  Level Estimated
11:53AM 58.5247 -42.9666 236° Southwest  Level Estimated
11:54AM 58.4554 -43.1587 235° Southwest  Level Estimated
11:55AM 58.3858 -43.3501 235° Southwest  Level Estimated
11:56AM 58.3159 -43.5408 235° Southwest  Level Estimated
11:57AM 58.2457 -43.7307 235° Southwest  Level Estimated
11:58AM 58.1753 -43.9198 235° Southwest  Level Estimated
11:59AM 58.1046 -44.1082 235° Southwest  Level Estimated
12:00PM 58.0336 -44.2958 234° Southwest  Level Estimated
12:01PM 57.9623 -44.4827 234° Southwest  Level Estimated
12:02PM 57.8908 -44.6688 234° Southwest  Level Estimated
12:03PM 57.8189 -44.8542 234° Southwest  Level Estimated
12:04PM 57.7468 -45.0389 234° Southwest  Level Estimated
12:05PM 57.6745 -45.2228 234° Southwest  Level Estimated
12:06PM 57.6019 -45.4060 234° Southwest  Level Estimated
12:07PM 57.5290 -45.5885 233° Southwest  Level Estimated
12:08PM 57.4558 -45.7702 233° Southwest  Level Estimated
12:09PM 57.3824 -45.9513 233° Southwest  Level Estimated
12:10PM 57.3088 -46.1315 233° Southwest  Level Estimated
12:11PM 57.2349 -46.3111 233° Southwest  Level Estimated
12:12PM 57.1607 -46.4899 233° Southwest  Level Estimated
12:13PM 57.0862 -46.6681 232° Southwest  Level Estimated
12:14PM 57.0116 -46.8455 232° Southwest  Level Estimated
12:15PM 56.9366 -47.0222 232° Southwest  Level Estimated
12:16PM 56.8615 -47.1982 232° Southwest  Level Estimated
12:17PM 56.7860 -47.3735 232° Southwest  Level Estimated
12:18PM 56.7104 -47.5480 232° Southwest  Level Estimated
12:19PM 56.6344 -47.7219 232° Southwest  Level Estimated
12:20PM 56.5583 -47.8951 231° Southwest  Level Estimated
12:21PM 56.4819 -48.0676 231° Southwest  Level Estimated
12:22PM 56.4053 -48.2393 231° Southwest  Level Estimated
12:23PM 56.3284 -48.4104 231° Southwest  Level Estimated
12:24PM 56.2513 -48.5808 231° Southwest  Level Estimated
12:25PM 56.1739 -48.7505 231° Southwest  Level Estimated
12:26PM 56.0964 -48.9196 231° Southwest  Level Estimated
12:27PM 56.0186 -49.0879 230° Southwest  Level Estimated
12:28PM 55.9405 -49.2556 230° Southwest  Level Estimated
12:29PM 55.8623 -49.4226 230° Southwest  Level Estimated
12:30PM 55.7838 -49.5889 230° Southwest  Level Estimated
12:31PM 55.7051 -49.7546 230° Southwest  Level Estimated
12:32PM 55.6262 -49.9196 230° Southwest  Level Estimated
12:33PM 55.5470 -50.0839 230° Southwest  Level Estimated
12:34PM 55.4677 -50.2476 229° Southwest  Level Estimated
12:35PM 55.3881 -50.4106 229° Southwest  Level Estimated
12:36PM 55.3083 -50.5729 229° Southwest  Level Estimated
12:37PM 55.2283 -50.7346 229° Southwest  Level Estimated
12:38PM 55.1480 -50.8957 229° Southwest  Level Estimated
12:39PM 55.0676 -51.0561 229° Southwest  Level Estimated
12:40PM 54.9869 -51.2159 229° Southwest  Level Estimated
12:41PM 54.9061 -51.3750 229° Southwest  Level Estimated
12:42PM 54.8250 -51.5335 228° Southwest  Level Estimated
12:43PM 54.7438 -51.6913 228° Southwest  Level Estimated
12:44PM 54.6623 -51.8485 228° Southwest  Level Estimated
12:45PM 54.5806 -52.0051 228° Southwest  Level Estimated
12:46PM 54.4987 -52.1610 228° Southwest  Level Estimated
12:46PM 53.5000 -53.4833 227° Southwest 450 518 36,000  Level Gander Center
12:47PM 54.4166 -52.3164 228° Southwest  Level Estimated
12:47PM 53.4000 -53.6167 219° Southwest 450 518 36,000  Level Gander Center
12:48PM 54.3344 -52.4711 228° Southwest  Level Estimated
12:48PM 53.3000 -53.7500 219° Southwest 450 518 36,000  Level Gander Center
12:49PM 54.2519 -52.6252 228° Southwest  Level Estimated
12:49PM 53.2000 -53.8833 219° Southwest 450 518 36,000  Level Gander Center
12:50PM 54.1692 -52.7786 227° Southwest  Level Estimated
12:50PM 53.1167 -54.0000 220° Southwest 450 518 36,000  Level Gander Center
12:51PM 54.0864 -52.9315 227° Southwest  Level Estimated
12:51PM 53.0333 -54.1500 227° Southwest 430 495 36,000  Level Gander Center
12:52PM 52.9667 -54.3000 234° Southwest 420 483 36,000  Level Gander Center
12:53PM 52.8833 -54.4667 230° Southwest 420 483 36,000  Level Gander Center
12:54PM 52.8167 -54.6167 234° Southwest 420 483 36,000  Level Gander Center
12:55PM 52.7333 -54.7667 227° Southwest 430 495 36,000  Level Gander Center
12:56PM 52.6500 -54.9167 228° Southwest 430 495 36,000  Level Gander Center
12:57PM 52.5667 -55.0667 228° Southwest 430 495 36,000  Level Gander Center
12:58PM 52.4833 -55.2167 228° Southwest 430 495 36,000  Level Gander Center
12:59PM 52.4167 -55.3500 231° Southwest 430 495 36,000  Level Gander Center
01:00PM 52.3333 -55.5000 228° Southwest 430 495 36,000  Level Gander Center
01:01PM 52.2667 -55.6500 234° Southwest 430 495 36,000  Level Gander Center
01:02PM 52.1667 -55.8000 223° Southwest 440 506 36,000  Level Gander Center
01:03PM 52.0833 -55.9500 228° Southwest 440 506 36,000  Level Gander Center
01:04PM 52.0167 -56.0833 231° Southwest 430 495 36,000  Level Gander Center
01:05PM 51.9333 -56.2333 228° Southwest 430 495 36,000  Level Gander Center
01:06PM 51.8500 -56.3833 228° Southwest 430 495 36,000  Level Gander Center
01:07PM 51.7667 -56.5167 225° Southwest 430 495 36,000  Level Gander Center
01:08PM 51.6833 -56.6667 228° Southwest 440 506 36,000  Level Gander Center
01:09PM 51.6000 -56.8167 228° Southwest 440 506 36,000  Level Gander Center
01:10PM 51.5333 -56.9500 231° Southwest 430 495 36,000  Level Gander Center
01:11PM 51.4333 -57.1000 223° Southwest 430 495 36,000  Level Gander Center
01:12PM 51.3500 -57.2333 225° Southwest 440 506 36,000  Level Gander Center
01:13PM 51.2667 -57.3833 228° Southwest 440 506 36,000  Level Gander Center
01:14PM 51.2000 -57.5167 231° Southwest 430 495 36,000  Level Gander Center
01:15PM 51.1000 -57.6833 226° Southwest 430 495 36,000  Level Gander Center
01:16PM 51.0167 -57.8000 221° Southwest 440 506 36,000  Level Gander Center
01:17PM 50.9333 -57.9667 232° Southwest 440 506 36,000  Level Gander Center
01:18PM 50.8667 -58.1000 232° Southwest 440 506 36,000  Level Gander Center
01:23PM 50.4380 -58.8200 232° Southwest 435 501 36,000  Level FlightAware
01:24PM 50.3850 -58.9060 226° Southwest 436 502 36,000  Level FlightAware
01:25PM 50.3210 -59.0080 226° Southwest 437 503 36,000  Level FlightAware
01:25PM 50.2720 -59.0870 226° Southwest 437 503 36,000  Level FlightAware
01:26PM 50.2060 -59.1910 225° Southwest 437 503 36,000  Level FlightAware
01:27PM 50.1620 -59.2590 225° Southwest 437 503 36,000  Level FlightAware
01:27PM 50.1160 -59.3310 225° Southwest 437 503 36,000  Level FlightAware
01:28PM 50.0730 -59.3970 225° Southwest 437 503 36,000  Level FlightAware
01:29PM 50.0290 -59.4650 225° Southwest 437 503 36,000  Level FlightAware
01:29PM 49.9860 -59.5330 225° Southwest 437 503 36,000  Level FlightAware
01:30PM 49.9440 -59.5980 225° Southwest 437 503 36,000  Level FlightAware
01:30PM 49.9010 -59.6660 226° Southwest 437 503 36,000  Level FlightAware
01:31PM 49.8570 -59.7330 224° Southwest 437 503 36,000  Level FlightAware
01:32PM 49.8120 -59.8030 225° Southwest 437 503 36,000  Level FlightAware
01:32PM 49.6667 -59.9833 225° Southwest 440 506 36,000  Level Gander Center
01:33PM 49.5833 -60.1167 226° Southwest 440 506 36,000  Level Gander Center
01:34PM 49.5000 -60.2500 226° Southwest 440 506 36,000  Level Gander Center
01:35PM 49.4000 -60.3833 221° Southwest 440 506 36,000  Level Gander Center
01:36PM 49.3167 -60.5167 226° Southwest 440 506 36,000  Level Gander Center
01:37PM 49.2333 -60.6500 226° Southwest 430 495 36,000  Level Gander Center
01:38PM 49.1500 -60.7667 223° Southwest 430 495 36,000  Level Gander Center
01:39PM 49.0500 -60.9333 228° Southwest 430 495 36,000  Level Gander Center
01:40PM 48.9667 -61.0333 218° Southwest 430 495 36,000  Level Gander Center
01:41PM 48.8833 -61.1500 223° Southwest 430 495 36,000  Level Gander Center
01:42PM 48.8000 -61.2833 227° Southwest 430 495 36,000  Level Gander Center
01:43PM 48.7167 -61.4167 227° Southwest 440 506 36,000  Level Gander Center
01:44PM 48.6167 -61.5333 218° Southwest 430 495 36,000  Level Gander Center
01:45PM 48.5333 -61.6667 227° Southwest 440 506 36,000  Level Gander Center
01:46PM 48.4500 -61.8167 230° Southwest 430 495 36,000  Level Gander Center
01:47PM 48.3667 -61.9167 219° Southwest 430 495 36,000  Level Gander Center
01:48PM 48.2833 -62.0333 223° Southwest 430 495 36,000  Level Gander Center
01:49PM 48.1833 -62.1833 225° Southwest 430 495 36,000  Level Gander Center
01:50PM 48.1000 -62.2833 219° Southwest 420 483 36,000  Level Gander Center
01:51PM 48.0000 -62.4000 218° Southwest 420 483 36,000  Level Gander Center
01:52PM 47.9167 -62.5333 227° Southwest 430 495 36,000  Level Gander Center
01:53PM 47.8333 -62.6500 223° Southwest 430 495 36,000  Level Gander Center
01:54PM 47.7500 -62.7667 223° Southwest 420 483 36,000  Level Gander Center
01:55PM 47.6667 -62.9000 227° Southwest 410 472 36,000  Level Gander Center
01:56PM 47.5833 -63.0167 223° Southwest 420 483 36,000  Level Gander Center
01:57PM 47.5000 -63.1167 219° Southwest 420 483 36,000  Level Gander Center
01:58PM 47.4167 -63.2333 223° Southwest 420 483 36,000  Level Gander Center
01:59PM 47.3333 -63.3500 224° Southwest 410 472 36,000  Level Gander Center
02:00PM 47.2333 -63.4667 218° Southwest 410 472 36,000  Level Gander Center
02:01PM 47.1500 -63.5833 224° Southwest 420 483 36,000  Level Gander Center
02:02PM 47.0667 -63.7167 227° Southwest 410 472 36,000  Level Gander Center
02:03PM 46.9833 -63.8000 214° Southwest 420 483 36,000  Level Gander Center
02:04PM 46.9000 -63.9167 224° Southwest 420 483 36,000  Level Gander Center
02:05PM 46.8167 -64.0333 224° Southwest 410 472 36,000  Level Gander Center
02:06PM 46.7167 -64.1333 214° Southwest 410 472 36,000  Level Gander Center
02:07PM 46.6333 -64.2500 224° Southwest 410 472 36,000  Level Gander Center
02:08PM 46.5500 -64.3667 224° Southwest 410 472 36,000  Level Gander Center
02:09PM 46.4667 -64.4833 224° Southwest 410 472 36,000  Level Gander Center
02:10PM 46.3833 -64.5667 215° Southwest 410 472 36,000  Level Gander Center
02:16PM 45.9290 -65.1840 215° Southwest 417 480 36,000  Level FlightAware
02:16PM 45.8820 -65.2410 220° Southwest 416 479 36,000  Level FlightAware
02:17PM 45.8300 -65.3070 221° Southwest 417 480 36,000  Level FlightAware
02:17PM 45.7780 -65.3710 221° Southwest 417 480 36,000  Level FlightAware
02:18PM 45.7240 -65.4370 220° Southwest 419 482 36,000  Level FlightAware
02:19PM 45.6750 -65.4980 221° Southwest 420 483 36,000  Level FlightAware
02:19PM 45.6210 -65.5640 221° Southwest 420 483 36,000  Level FlightAware
02:20PM 45.5700 -65.6260 220° Southwest 419 482 36,000  Level FlightAware
02:20PM 45.5270 -65.6790 221° Southwest 418 481 36,000  Level FlightAware
02:21PM 45.4660 -65.7540 221° Southwest 414 476 36,000  Level FlightAware
02:22PM 45.4210 -65.8090 221° Southwest 413 475 36,000  Level FlightAware
02:22PM 45.3660 -65.8750 220° Southwest 414 476 36,000  Level FlightAware
02:23PM 45.3240 -65.9250 220° Southwest 408 470 36,000  Level FlightAware
02:23PM 45.2730 -65.9870 221° Southwest 408 470 36,000  Level FlightAware
02:24PM 45.2230 -66.0480 221° Southwest 407 468 36,000  Level FlightAware
02:24PM 45.1640 -66.1180 220° Southwest 406 467 36,000  Level FlightAware
02:25PM 45.1120 -66.1800 220° Southwest 408 470 36,000  Level FlightAware
02:26PM 45.0600 -66.2420 220° Southwest 408 470 36,000  Level FlightAware
02:26PM 45.0080 -66.3040 220° Southwest 408 470 36,000  Level FlightAware
02:27PM 44.9580 -66.3640 220° Southwest 407 468 36,000  Level FlightAware
02:27PM 44.8990 -66.4350 220° Southwest 405 466 36,000  Level FlightAware
02:28PM 44.8400 -66.5040 220° Southwest 405 466 36,000  Level FlightAware
02:29PM 44.7970 -66.5550 220° Southwest 405 466 36,000  Level FlightAware
02:29PM 44.7450 -66.6160 220° Southwest 404 465 36,000  Level FlightAware
02:30PM 44.6950 -66.6750 220° Southwest 404 465 36,000  Level FlightAware
02:30PM 44.6440 -66.7350 220° Southwest 403 464 36,000  Level FlightAware
02:31PM 44.5940 -66.7930 220° Southwest 402 463 36,000  Level FlightAware
02:32PM 44.5430 -66.8530 220° Southwest 400 460 36,000  Level FlightAware
02:32PM 44.4930 -66.9110 220° Southwest 399 459 36,000  Level FlightAware
02:33PM 44.4420 -66.9710 220° Southwest 403 464 36,000  Level FlightAware
02:33PM 44.3940 -67.0300 221° Southwest 405 466 36,000  Level FlightAware
02:34PM 44.3480 -67.0940 225° Southwest 406 467 36,000  Level FlightAware
02:34PM 44.3010 -67.1590 225° Southwest 406 467 36,000  Level FlightAware
02:35PM 44.2540 -67.2240 225° Southwest 404 465 36,000  Level FlightAware
02:36PM 44.2070 -67.2870 224° Southwest 403 464 36,000  Level FlightAware
02:36PM 44.1600 -67.3510 224° Southwest 403 464 36,000  Level FlightAware
02:37PM 44.1130 -67.4160 225° Southwest 404 465 36,000  Level FlightAware
02:38PM 44.0520 -67.4990 224° Southwest 404 465 36,000  Level FlightAware
02:38PM 43.9990 -67.5700 224° Southwest 403 464 36,000  Level FlightAware
02:39PM 43.9380 -67.6520 224° Southwest 402 463 36,000  Level FlightAware
02:40PM 43.8790 -67.7320 224° Southwest 403 464 36,000  Level FlightAware
02:40PM 43.8240 -67.8070 225° Southwest 402 463 36,000  Level FlightAware
02:41PM 43.7760 -67.8700 223° Southwest 401 461 36,000  Level FlightAware
02:42PM 43.7350 -67.9250 224° Southwest 400 460 36,000  Level FlightAware
02:42PM 43.6700 -68.0120 224° Southwest 399 459 36,000  Level FlightAware
02:43PM 43.6230 -68.0740 224° Southwest 399 459 36,000  Level FlightAware
02:44PM 43.5760 -68.1360 224° Southwest 399 459 36,000  Level FlightAware
02:44PM 43.5300 -68.1980 224° Southwest 399 459 36,000  Level FlightAware
02:45PM 43.4830 -68.2590 223° Southwest 398 458 36,000  Level FlightAware
02:46PM 43.4250 -68.3340 223° Southwest 398 458 36,000  Level FlightAware
02:48PM 43.2220 -68.6010 223° Southwest 388 447 36,000  Level FlightAware
02:49PM 43.1850 -68.6500 224° Southwest 388 447 36,000  Level FlightAware
02:49PM 43.1300 -68.7200 223° Southwest 387 445 36,000  Level FlightAware
02:50PM 43.0880 -68.7750 224° Southwest 388 447 36,000  Level FlightAware
02:50PM 43.0400 -68.8370 223° Southwest 386 444 36,000  Level FlightAware
02:51PM 42.9940 -68.8970 224° Southwest 385 443 36,000  Level FlightAware
02:51PM 42.9530 -68.9490 223° Southwest 386 444 36,000  Level FlightAware
02:52PM 42.8820 -69.0400 223° Southwest 386 444 36,000  Level FlightAware
02:53PM 42.8310 -69.1060 224° Southwest 394 453 36,000  Level FlightAware
02:54PM 42.7840 -69.1650 223° Southwest 394 453 36,000  Level FlightAware
02:54PM 42.7350 -69.2280 223° Southwest 394 453 36,000  Level FlightAware
02:55PM 42.6890 -69.2870 223° Southwest 393 452 36,000  Level FlightAware
02:55PM 42.6300 -69.3610 223° Southwest 392 451 36,000  Level FlightAware
02:56PM 42.5900 -69.4110 223° Southwest 385 443 36,000  Level FlightAware
02:57PM 42.5290 -69.4890 223° Southwest 393 452 36,000  Level FlightAware
02:57PM 42.4810 -69.5490 223° Southwest 392 451 36,000  Level FlightAware
02:58PM 42.4280 -69.6160 223° Southwest 382 440 36,000  Level FlightAware
02:59PM 42.3820 -69.6730 222° Southwest 380 437 36,000  Level FlightAware
02:59PM 42.3360 -69.7310 223° Southwest 381 438 36,000  Level FlightAware
03:00PM 42.2910 -69.7870 223° Southwest 381 438 36,000  Level FlightAware
03:00PM 42.2440 -69.8460 223° Southwest 382 440 36,000  Level FlightAware
03:01PM 42.1980 -69.9020 222° Southwest 390 449 36,000  Level FlightAware
03:01PM 42.1510 -69.9610 223° Southwest 392 451 36,000  Level FlightAware
03:02PM 42.1240 -69.9940 222° Southwest 394 453 36,000  Level FlightAware
03:03PM 42.0660 -70.0660 223° Southwest 381 438 36,000  Level FlightAware
03:03PM 41.9990 -70.1490 223° Southwest 380 437 36,000  Level FlightAware
03:04PM 41.9450 -70.2140 222° Southwest 382 440 36,000  Level FlightAware
03:05PM 41.9030 -70.2720 226° Southwest 390 449 36,000  Level FlightAware
03:05PM 41.8600 -70.3470 232° Southwest 385 443 36,000  Level FlightAware
03:06PM 41.8180 -70.4220 233° Southwest 390 449 36,000  Level FlightAware
03:07PM 41.7740 -70.4960 231° Southwest 390 449 36,000  Level FlightAware
03:07PM 41.7320 -70.5690 232° Southwest 389 448 36,000  Level FlightAware
03:08PM 41.6970 -70.6290 232° Southwest 392 451 36,000  Level FlightAware
03:08PM 41.6570 -70.6970 232° Southwest 394 453 36,000  Level FlightAware
03:09PM 41.6220 -70.7570 232° Southwest 395 455 36,000  Level FlightAware
03:09PM 41.5850 -70.8200 232° Southwest 396 456 36,000  Level FlightAware
03:10PM 41.5540 -70.8730 232° Southwest 396 456 36,000  Level FlightAware
03:11PM 41.5120 -70.9450 232° Southwest 395 455 36,000  Level FlightAware
03:11PM 41.4720 -71.0120 231° Southwest 395 455 36,000  Level FlightAware
03:12PM 41.4220 -71.0980 232° Southwest 394 453 36,000  Level FlightAware
03:12PM 41.3820 -71.1630 231° Southwest 392 451 36,000  Level FlightAware
03:13PM 41.3380 -71.2380 232° Southwest 389 448 36,000  Level FlightAware
03:14PM 41.2930 -71.3130 231° Southwest 388 447 36,000  Level FlightAware
03:15PM 41.2430 -71.3970 232° Southwest 385 443 36,000  Level FlightAware
03:15PM 41.1880 -71.4880 231° Southwest 382 440 36,000  Level FlightAware
03:16PM 41.1389 -71.5712 232° Southwest 383 441 36,000  Level FlightAware ADS-B
03:17PM 41.0865 -71.6481 228° Southwest 378 435 36,000  Level FlightAware ADS-B
03:17PM 41.0409 -71.7114 226° Southwest 376 433 36,000  Level FlightAware ADS-B
03:18PM 41.0029 -71.7642 226° Southwest 376 433 36,000  Level FlightAware ADS-B
03:19PM 40.9240 -71.8731 226° Southwest 374 430 36,000  Level FlightAware ADS-B
03:20PM 40.8570 -71.9660 226° Southwest 372 428 36,000  Level FlightAware
03:20PM 40.8360 -71.9942 225° Southwest 373 429 36,000  Level FlightAware ADS-B
03:21PM 40.7740 -72.0790 226° Southwest 371 427 36,000  Level FlightAware
03:21PM 40.7532 -72.1078 226° Southwest 372 428 36,000  Level FlightAware ADS-B
03:22PM 40.7154 -72.1595 226° Southwest 372 428 36,000  Level FlightAware ADS-B
03:23PM 40.6741 -72.2159 226° Southwest 372 428 36,000  Level FlightAware ADS-B
03:23PM 40.6113 -72.3015 226° Southwest 372 428 36,000  Level FlightAware ADS-B
03:24PM 40.5720 -72.3550 226° Southwest 368 423 36,000  Level FlightAware
03:25PM 40.5290 -72.4130 226° Southwest 368 423 36,000  Level FlightAware
03:25PM 40.4890 -72.4680 226° Southwest 369 425 36,000  Level FlightAware
03:26PM 40.4522 -72.5170 225° Southwest 369 425 36,000  Level FlightAware ADS-B
03:26PM 40.4030 -72.5830 226° Southwest 370 426 36,000  Level FlightAware
03:27PM 40.3803 -72.6140 226° Southwest 370 426 36,000  Level FlightAware ADS-B
03:27PM 40.3436 -72.6633 226° Southwest 367 422 36,000  Level FlightAware ADS-B
03:28PM 40.3057 -72.7140 226° Southwest 367 422 36,000  Level FlightAware ADS-B
03:28PM 40.2693 -72.7629 226° Southwest 368 423 36,000  Level FlightAware ADS-B
03:29PM 40.2329 -72.8116 226° Southwest 370 426 36,000  Level FlightAware ADS-B
03:29PM 40.1931 -72.8647 226° Southwest 371 427 36,000  Level FlightAware ADS-B
03:30PM 40.1550 -72.9154 225° Southwest 371 427 36,000  Level FlightAware ADS-B
03:30PM 40.1189 -72.9634 225° Southwest 371 427 36,000  Level FlightAware ADS-B
03:31PM 40.0663 -73.0334 226° Southwest 373 429 36,000  Level FlightAware ADS-B
03:32PM 40.0269 -73.0855 225° Southwest 375 432 36,000  Level FlightAware ADS-B
03:32PM 39.9849 -73.1411 225° Southwest 375 432 36,000  Level FlightAware ADS-B
03:33PM 39.9482 -73.1895 225° Southwest 377 434 36,000  Level FlightAware ADS-B
03:33PM 39.9055 -73.2460 225° Southwest 378 435 36,000  Level FlightAware ADS-B
03:34PM 39.8584 -73.3082 225° Southwest 378 435 36,000  Level FlightAware ADS-B
03:34PM 39.8189 -73.3603 225° Southwest 376 433 36,000  Level FlightAware ADS-B
03:35PM 39.7750 -73.4179 225° Southwest 375 432 36,000  Level FlightAware ADS-B
03:36PM 39.7177 -73.4929 225° Southwest 375 432 36,000  Level FlightAware ADS-B
03:36PM 39.6796 -73.5427 225° Southwest 376 433 36,000  Level FlightAware ADS-B
03:37PM 39.6403 -73.5940 225° Southwest 378 435 36,000  Level FlightAware ADS-B
03:37PM 39.5953 -73.6526 225° Southwest 379 436 36,000  Level FlightAware ADS-B
03:38PM 39.5568 -73.7027 225° Southwest 380 437 36,000  Level FlightAware ADS-B
03:39PM 39.5177 -73.7535 225° Southwest 380 437 36,000  Level FlightAware ADS-B
03:39PM 39.4799 -73.8024 225° Southwest 379 436 36,000  Level FlightAware ADS-B
03:40PM 39.4342 -73.8616 225° Southwest 378 435 36,000  Level FlightAware ADS-B
03:40PM 39.3947 -73.9127 225° Southwest 378 435 36,000  Level FlightAware ADS-B
03:41PM 39.3537 -73.9656 225° Southwest 378 435 36,000  Level FlightAware ADS-B
03:41PM 39.3152 -74.0150 225° Southwest 378 435 36,000  Level FlightAware ADS-B
03:42PM 39.2773 -74.0638 225° Southwest 378 435 36,000  Level FlightAware ADS-B
03:42PM 39.2396 -74.1121 225° Southwest 377 434 36,000  Level FlightAware ADS-B
03:43PM 39.2009 -74.1617 225° Southwest 377 434 36,000  Level FlightAware ADS-B
03:43PM 39.1610 -74.2126 225° Southwest 378 435 36,000  Level FlightAware ADS-B
03:44PM 39.1210 -74.2637 225° Southwest 379 436 36,000  Level FlightAware ADS-B
03:44PM 39.0822 -74.3131 225° Southwest 379 436 36,000  Level FlightAware ADS-B
03:45PM 39.0426 -74.3636 225° Southwest 380 437 36,000  Level FlightAware ADS-B
03:45PM 39.0051 -74.4112 225° Southwest 380 437 36,000  Level FlightAware ADS-B
03:46PM 38.9669 -74.4596 225° Southwest 380 437 36,000  Level FlightAware ADS-B
03:46PM 38.9274 -74.5096 225° Southwest 381 438 36,000  Level FlightAware ADS-B
03:47PM 38.8898 -74.5573 225° Southwest 381 438 36,000  Level FlightAware ADS-B
03:48PM 38.8258 -74.6380 225° Southwest 383 441 36,000  Level FlightAware ADS-B
03:48PM 38.7874 -74.6864 225° Southwest 385 443 36,000  Level FlightAware ADS-B
03:49PM 38.7536 -74.7286 224° Southwest 386 444 36,000  Level FlightAware ADS-B
03:49PM 38.7118 -74.7733 220° Southwest 387 445 36,000  Level FlightAware ADS-B
03:50PM 38.6344 -74.8563 220° Southwest 388 447 36,000  Level FlightAware ADS-B
03:51PM 38.5856 -74.9083 220° Southwest 389 448 36,000  Level FlightAware ADS-B
03:51PM 38.5435 -74.9528 220° Southwest 391 450 36,000  Level FlightAware ADS-B
03:52PM 38.5050 -74.9940 220° Southwest 394 453 36,000  Level FlightAware
03:52PM 38.4468 -75.0551 219° Southwest 393 452 36,000  Level FlightAware ADS-B
03:53PM 38.4040 -75.1003 220° Southwest 398 458 36,000  Level FlightAware ADS-B
03:54PM 38.3563 -75.1505 220° Southwest 398 458 36,000  Level FlightAware ADS-B
03:54PM 38.3136 -75.1954 220° Southwest 398 458 36,000  Level FlightAware ADS-B
03:55PM 38.2450 -75.2670 219° Southwest 400 460 36,000  Level FlightAware
03:55PM 38.2200 -75.2890 215° Southwest 400 460 36,000  Level FlightAware
03:55PM 38.1942 -75.3076 210° Southwest 400 460 36,000  Level FlightAware ADS-B
03:55PM 38.1838 -75.3148 209° Southwest 402 463 36,000  Level FlightAware ADS-B
03:56PM 38.1317 -75.3512 209° Southwest 402 463 36,000  Level FlightAware ADS-B
03:57PM 38.0734 -75.3921 209° Southwest 402 463 36,000  Level FlightAware ADS-B
03:57PM 38.0221 -75.4281 209° Southwest 402 463 36,000  Level FlightAware ADS-B
03:58PM 37.9310 -75.4920 209° Southwest 402 463 36,000  Level FlightAware
03:58PM 37.9030 -75.5119 209° Southwest 402 463 36,000  Level FlightAware ADS-B
03:59PM 37.8484 -75.5501 209° Southwest 402 463 36,000  Level FlightAware ADS-B
03:59PM 37.7983 -75.5851 209° Southwest 404 465 36,000  Level FlightAware ADS-B
04:00PM 37.7484 -75.6199 209° Southwest 403 464 36,000  Level FlightAware ADS-B
04:01PM 37.6904 -75.6605 209° Southwest 404 465 36,000  Level FlightAware ADS-B
04:01PM 37.6334 -75.7001 209° Southwest 405 466 36,000  Level FlightAware ADS-B
04:02PM 37.5250 -75.7750 209° Southwest 407 468 36,000  Level FlightAware
04:03PM 37.4760 -75.8090 209° Southwest 408 470 36,000  Level FlightAware
04:03PM 37.4180 -75.8490 209° Southwest 408 470 36,000  Level FlightAware
04:04PM 37.3570 -75.8910 209° Southwest 402 463 36,000  Level FlightAware
04:04PM 37.3006 -75.9303 209° Southwest 410 472 36,000  Level FlightAware ADS-B
04:05PM 37.2482 -75.9664 209° Southwest 410 472 36,000  Level FlightAware ADS-B
04:05PM 37.1967 -76.0017 209° Southwest 412 474 36,000  Level FlightAware ADS-B
04:06PM 37.1070 -76.0630 209° Southwest 415 478 36,000  Level FlightAware
04:07PM 37.0849 -76.0783 209° Southwest 413 475 36,000  Level FlightAware ADS-B
04:07PM 37.0285 -76.1168 209° Southwest 417 480 36,000  Level FlightAware ADS-B
04:08PM 36.9755 -76.1530 209° Southwest 417 480 36,000  Level FlightAware ADS-B
04:08PM 36.9046 -76.2013 209° Southwest 417 480 36,000  Level FlightAware ADS-B
04:09PM 36.8415 -76.2441 208° Southwest 418 481 36,000  Level FlightAware ADS-B
04:10PM 36.7790 -76.2870 209° Southwest 418 481 36,000  Level FlightAware
04:12PM 36.5980 -76.4090 208° Southwest 418 481 36,000  Level FlightAware
04:12PM 36.5470 -76.4460 210° Southwest 416 479 36,000  Level FlightAware
04:13PM 36.4870 -76.5100 221° Southwest 414 476 36,000  Level FlightAware
04:13PM 36.4400 -76.5600 221° Southwest 415 478 36,000  Level FlightAware
04:14PM 36.3900 -76.6120 220° Southwest 409 471 36,000  Level FlightAware
04:14PM 36.3460 -76.6610 222° Southwest 409 471 36,000  Level FlightAware
04:15PM 36.2758 -76.7283 222° Southwest 421 484 36,000  Level Washington Center
04:19PM 35.8780 -77.1380 222° Southwest 424 488 36,000  Level FlightAware
04:21PM 35.7420 -77.2760 219° Southwest 429 494 36,000  Level FlightAware
04:22PM 35.6970 -77.3200 218° Southwest 429 494 36,000  Level FlightAware
04:22PM 35.6500 -77.3670 219° Southwest 429 494 36,000  Level FlightAware
04:23PM 35.5940 -77.4240 220° Southwest 429 494 36,000  Level FlightAware
04:24PM 35.5450 -77.4720 219° Southwest 429 494 36,000  Level FlightAware
04:24PM 35.4980 -77.5190 219° Southwest 429 494 36,000  Level FlightAware
04:25PM 35.4510 -77.5660 219° Southwest 429 494 36,000  Level FlightAware
04:25PM 35.4040 -77.6130 219° Southwest 429 494 36,000  Level FlightAware
04:26PM 35.3590 -77.6570 219° Southwest 429 494 36,000  Level FlightAware
04:27PM 35.3120 -77.7040 219° Southwest 429 494 36,000  Level FlightAware
04:27PM 35.2650 -77.7510 219° Southwest 429 494 36,000  Level FlightAware
04:28PM 35.2160 -77.7990 219° Southwest 429 494 36,000  Level FlightAware
04:28PM 35.1680 -77.8470 219° Southwest 429 494 36,000  Level FlightAware
04:29PM 35.1200 -77.8930 218° Southwest 429 494 36,000  Level FlightAware
04:30PM 35.0720 -77.9410 219° Southwest 429 494 36,000  Level FlightAware
04:30PM 35.0270 -77.9860 219° Southwest 429 494 36,000  Level FlightAware
04:31PM 34.9240 -78.3140 249° West 438 504 36,000  Level FlightAware
04:31PM 34.8740 -78.3920 232° Southwest 438 504 36,000  Level FlightAware
04:32PM 34.8360 -78.4550 234° Southwest 439 505 36,000  Level FlightAware
04:32PM 34.7920 -78.5290 234° Southwest 439 505 36,000  Level FlightAware
04:33PM 34.7540 -78.5930 234° Southwest 441 507 36,000  Level FlightAware
04:34PM 34.7100 -78.6640 233° Southwest 442 509 36,000  Level FlightAware
04:34PM 34.6650 -78.7310 231° Southwest 442 509 36,000  Level FlightAware
04:35PM 34.5910 -78.7880 212° Southwest 450 518 36,000  Level FlightAware
04:35PM 34.5270 -78.8370 212° Southwest 452 520 36,000  Level FlightAware
04:36PM 34.4710 -78.8820 214° Southwest 456 525 36,000  Level FlightAware
04:37PM 34.3890 -78.9450 212° Southwest 460 529 36,000  Level FlightAware
04:37PM 34.3380 -78.9800 210° Southwest 464 534 36,000  Level FlightAware
04:38PM 34.2590 -79.0430 213° Southwest 465 535 36,000  Level FlightAware
04:39PM 34.1870 -79.1020 214° Southwest 464 534 36,000  Level FlightAware
04:39PM 34.1200 -79.1620 217° Southwest 464 534 36,000  Level FlightAware
04:40PM 34.0610 -79.2210 220° Southwest 462 532 36,000  Level FlightAware
04:40PM 34.0040 -79.2770 219° Southwest 460 529 36,000  Level FlightAware
04:41PM 33.9470 -79.3330 219° Southwest 459 528 36,000  Level FlightAware
04:42PM 33.8900 -79.3910 220° Southwest 447 514 36,000  Level FlightAware
04:42PM 33.8470 -79.4530 230° Southwest 439 505 36,000  Level FlightAware
04:43PM 33.8090 -79.5310 240° Southwest 436 502 36,000  Level FlightAware
04:43PM 33.7750 -79.6050 241° Southwest 434 499 36,000  Level FlightAware
04:44PM 33.7390 -79.6810 240° Southwest 437 503 36,000  Level FlightAware
04:45PM 33.7040 -79.7520 239° Southwest 442 509 36,000  Level FlightAware
04:45PM 33.6680 -79.8290 241° Southwest 449 517 36,000  Level FlightAware
04:46PM 33.6320 -79.9050 240° Southwest 455 524 36,000  Level FlightAware
04:46PM 33.5910 -79.9740 235° Southwest 453 521 36,000  Level FlightAware
04:47PM 33.5310 -80.0290 217° Southwest 455 524 36,000  Level FlightAware
04:47PM 33.5090 -80.0430 208° Southwest 455 524 36,000  Level FlightAware
04:48PM 33.4320 -80.0670 195° South 457 526 36,000  Level FlightAware
04:48PM 33.3590 -80.0860 192° South 458 527 36,000  Level FlightAware
04:49PM 33.2890 -80.1070 194° South 460 529 36,000  Level FlightAware
04:49PM 33.2140 -80.1350 197° South 468 539 36,000  Level FlightAware
04:50PM 33.1460 -80.1610 198° South 473 544 36,000  Level FlightAware
04:51PM 33.0670 -80.1880 196° South 477 549 36,000  Level FlightAware
04:51PM 32.9920 -80.2070 192° South 480 552 36,000  Level FlightAware
04:52PM 32.9140 -80.2270 192° South 487 560 36,000  Level FlightAware
04:52PM 32.8280 -80.2490 192° South 485 558 36,000  Level FlightAware
04:53PM 32.7510 -80.2690 192° South 484 557 36,000  Level FlightAware
04:54PM 32.6730 -80.2880 192° South 481 554 36,000  Level FlightAware
04:54PM 32.6000 -80.3070 192° South 479 551 36,000  Level FlightAware
04:55PM 32.5250 -80.3260 192° South 482 555 36,000  Level FlightAware
04:55PM 32.4470 -80.3460 192° South 484 557 36,000  Level FlightAware
04:56PM 32.3740 -80.3640 192° South 483 556 36,000  Level FlightAware
04:57PM 32.2900 -80.3850 192° South 489 563 36,000  Level FlightAware
04:57PM 32.2140 -80.4040 192° South 494 568 36,000  Level FlightAware
04:58PM 32.1250 -80.4270 192° South 492 566 36,000  Level FlightAware
04:58PM 32.0620 -80.4420 191° South 493 567 36,000  Level FlightAware
04:59PM 31.9770 -80.4640 192° South 495 570 36,000  Level FlightAware
05:00PM 31.8540 -80.4940 192° South 493 567 36,000  Level FlightAware
05:01PM 31.7770 -80.5130 192° South 494 568 36,000  Level FlightAware
05:01PM 31.6940 -80.5340 192° South 494 568 36,000  Level FlightAware
05:02PM 31.6180 -80.5530 192° South 497 572 36,000  Level FlightAware
05:03PM 31.4850 -80.5860 192° South 499 574 36,000  Level FlightAware
05:03PM 31.4160 -80.6030 192° South 499 574 36,000  Level FlightAware
05:04PM 31.3470 -80.6200 192° South 499 574 36,000  Level FlightAware
05:05PM 31.2330 -80.6480 192° South 500 575 36,000  Level FlightAware
05:05PM 31.1390 -80.6700 191° South 498 573 36,000  Level FlightAware
05:06PM 31.0680 -80.6860 191° South 498 573 36,000  Level FlightAware
05:06PM 30.9990 -80.7020 191° South 498 573 36,000  Level FlightAware
05:07PM 30.9290 -80.7170 190° South 498 573 36,000  Level FlightAware
05:08PM 30.8600 -80.7330 191° South 498 573 36,000  Level FlightAware
05:08PM 30.7910 -80.7490 191° South 498 573 36,000  Level FlightAware
05:09PM 30.7220 -80.7640 191° South 498 573 36,000  Level FlightAware
05:09PM 30.6520 -80.7800 191° South 498 573 36,000  Level FlightAware
05:10PM 30.5830 -80.7960 191° South 498 573 36,000  Level FlightAware
05:11PM 30.5160 -80.8110 191° South 498 573 36,000  Level FlightAware
05:12PM 30.2760 -80.7510 184° South 488 562 36,000  Level FlightAware
05:12PM 30.2760 -80.7510 184° South 487 560 36,000  Level FlightAware
05:13PM 30.1080 -80.7620 183° South 487 560 36,000  Level FlightAware
05:14PM 30.0190 -80.7670 183° South 487 560 36,000  Level FlightAware
05:14PM 29.9510 -80.7710 183° South 487 560 36,000  Level FlightAware
05:15PM 29.8820 -80.7750 183° South 487 560 36,000  Level FlightAware
05:15PM 29.8110 -80.7800 183° South 487 560 36,000  Level FlightAware
05:16PM 29.7420 -80.7840 183° South 487 560 36,000  Level FlightAware
05:17PM 29.6730 -80.7880 183° South 487 560 36,000  Level FlightAware
05:17PM 29.6030 -80.7920 183° South 487 560 36,000  Level FlightAware
05:18PM 29.5370 -80.7960 183° South 487 560 36,000  Level FlightAware
05:18PM 29.4670 -80.8000 183° South 487 560 36,000  Level FlightAware
05:19PM 29.3960 -80.8050 184° South 487 560 36,000  Level FlightAware
05:20PM 29.3230 -80.8090 183° South 487 560 36,000  Level FlightAware
05:21PM 29.0550 -80.8290 184° South 470 541 36,000  Level FlightAware
05:21PM 28.9530 -80.8220 177° South 469 540 36,000  Level FlightAware
05:22PM 28.8650 -80.8080 172° South 469 540 36,000  Level FlightAware
05:23PM 28.7690 -80.7950 173° South 476 548 36,000  Level FlightAware
05:23PM 28.6890 -80.7840 173° South 478 550 36,000  Level FlightAware
05:24PM 28.6100 -80.7720 172° South 478 550 36,000  Level FlightAware
05:25PM 28.5320 -80.7600 172° South 476 548 36,000  Level FlightAware
05:25PM 28.4610 -80.7490 172° South 473 544 36,000  Level FlightAware
05:26PM 28.3900 -80.7380 172° South 471 542 36,000  Level FlightAware
05:26PM 28.3110 -80.7260 172° South 469 540 36,000  Level FlightAware
05:27PM 28.2300 -80.7130 172° South 467 537 36,000  Level FlightAware
05:28PM 28.1390 -80.7130 180° South 461 531 36,000  Level FlightAware
05:28PM 28.0640 -80.7170 183° South 457 526 36,000  Level FlightAware
05:29PM 27.9840 -80.7280 187° South 450 518 36,000  Level FlightAware
05:29PM 27.9030 -80.7380 186° South 450 518 36,000 120 Level FlightAware
05:30PM 27.8410 -80.7450 186° South 456 525 36,200 960 Climbing FlightAware
05:31PM 27.7640 -80.7540 186° South 449 517 37,100 1,020 Climbing FlightAware
05:32PM 27.6170 -80.7710 186° South 451 519 38,000 480 Climbing FlightAware
05:32PM 27.5480 -80.7790 186° South 449 517 38,000  Level FlightAware
05:33PM 27.4460 -80.7910 186° South 455 524 38,000  Level FlightAware
05:34PM 27.3790 -80.7980 185° South 455 524 38,000  Level FlightAware
05:34PM 27.2940 -80.8080 186° South 457 526 38,000  Level FlightAware
05:35PM 27.2260 -80.8150 185° South 457 526 38,000  Level FlightAware
05:35PM 27.1500 -80.8240 186° South 454 522 38,000  Level FlightAware
05:36PM 27.0760 -80.8330 186° South 453 521 38,000  Level FlightAware
05:36PM 27.0090 -80.8400 185° South 453 521 38,000  Level FlightAware
05:37PM 26.9220 -80.8500 186° South 453 521 38,000  Level FlightAware
05:38PM 26.8570 -80.8570 185° South 455 524 38,000  Level FlightAware
05:38PM 26.7770 -80.8660 186° South 455 524 38,000  Level FlightAware
05:39PM 26.6980 -80.8750 186° South 455 524 38,000  Level FlightAware
05:40PM 26.6290 -80.8830 186° South 454 522 38,000  Level FlightAware
05:40PM 26.5440 -80.8930 186° South 455 524 38,000  Level FlightAware
05:41PM 26.4670 -80.9010 185° South 456 525 38,000  Level FlightAware
05:41PM 26.3990 -80.9090 186° South 452 520 38,000  Level FlightAware
05:42PM 26.3050 -80.9190 185° South 455 524 38,000  Level FlightAware
05:43PM 26.2270 -80.9270 185° South 465 535 38,000  Level FlightAware
05:43PM 26.1570 -80.9220 176° South 455 524 38,000  Level FlightAware
05:44PM 26.0800 -80.9080 171° South 459 528 38,000  Level FlightAware
05:44PM 26.0070 -80.8950 171° South 457 526 38,000  Level FlightAware
05:45PM 25.9340 -80.8810 170° South 458 527 38,000  Level FlightAware
05:46PM 25.8520 -80.8670 171° South 456 525 38,000  Level FlightAware
05:46PM 25.7550 -80.8500 171° South 456 525 38,000  Level FlightAware
05:47PM 25.6940 -80.8400 172° South 458 527 38,000 -120 Level FlightAware
05:48PM 25.6110 -80.8490 186° South 447 514 37,900 -480 Descending FlightAware
05:48PM 25.5370 -80.8700 194° South 451 519 37,400 -960 Descending FlightAware
05:49PM 25.4600 -80.8910 194° South 451 519 36,800 -960 Descending FlightAware
05:49PM 25.3820 -80.9130 194° South 462 532 36,200 -1,080 Descending FlightAware
05:50PM 25.3060 -80.9330 193° South 464 534 35,500 -1,080 Descending FlightAware
05:51PM 25.2370 -80.9520 194° South 467 537 35,000 -1,020 Descending FlightAware
05:51PM 25.1640 -80.9730 195° South 471 542 34,400 -960 Descending FlightAware
05:51PM 25.1320 -80.9870 202° Southwest 472 543 34,200 -1,020 Descending FlightAware
05:52PM 25.0770 -81.0370 219° Southwest 472 543 33,600 -1,080 Descending FlightAware
05:53PM 25.0260 -81.1090 232° Southwest 477 549 33,000 -960 Descending FlightAware
05:53PM 24.9820 -81.1710 232° Southwest 479 551 32,500 -1,020 Descending FlightAware
05:54PM 24.9320 -81.2400 231° Southwest 480 552 31,900 -1,020 Descending FlightAware
05:54PM 24.8700 -81.3250 231° Southwest 477 549 31,200 -1,020 Descending FlightAware
05:55PM 24.8210 -81.3930 232° Southwest 473 544 30,600 -1,080 Descending FlightAware
05:56PM 24.7780 -81.4540 232° Southwest 471 542 30,000 -1,080 Descending FlightAware
05:56PM 24.7210 -81.5330 232° Southwest 447 514 29,300 -900 Descending FlightAware
05:57PM 24.6740 -81.5970 231° Southwest 420 483 28,800 -960 Descending FlightAware
05:58PM 24.6330 -81.6550 232° Southwest 419 482 28,200 -1,080 Descending FlightAware
05:58PM 24.5910 -81.7110 230° Southwest 417 480 27,600 -1,020 Descending FlightAware
05:59PM 24.5540 -81.7620 231° Southwest 420 483 27,100 -960 Descending FlightAware
05:59PM 24.5090 -81.8240 231° Southwest 418 481 26,500 -1,020 Descending FlightAware
06:00PM 24.4670 -81.8820 232° Southwest 410 472 25,900 -1,080 Descending FlightAware
06:00PM 24.4250 -81.9400 232° Southwest 401 461 25,300 -1,080 Descending FlightAware
06:01PM 24.3790 -82.0020 231° Southwest 402 463 24,600 -1,080 Descending FlightAware
06:02PM 24.3430 -82.0520 232° Southwest 400 460 24,100 -1,020 Descending FlightAware
06:02PM 24.2890 -82.1260 231° Southwest 395 455 23,300 -1,020 Descending FlightAware
06:03PM 24.2420 -82.1910 232° Southwest 393 452 22,700 -480 Descending FlightAware
06:04PM 24.2040 -82.2430 231° Southwest 393 452 22,700 -480 Level FlightAware
06:04PM 24.1470 -82.3200 231° Southwest 382 440 22,000 -540 Descending FlightAware
06:05PM 24.1130 -82.3660 231° Southwest 382 440 22,000  Level FlightAware
06:06PM 24.0780 -82.4130 231° Southwest 382 440 22,000  Level FlightAware
06:06PM 24.0440 -82.4590 231° Southwest 382 440 22,000  Level FlightAware
06:07PM 24.0100 -82.5050 231° Southwest 382 440 22,000  Level FlightAware
06:07PM 23.9760 -82.5510 231° Southwest 382 440 22,000  Level FlightAware
06:14PM 23.2579 -82.4208 175° South  Level FlightAware Approximate
06:15PM 23.1374 -82.4167 180° South  Level FlightAware Approximate
06:16PM 23.0182 -82.4000 180° South  Level FlightAware Approximate
06:17PM 22.9891 -82.4091 180° South  Level Estimated
06:18PM 22.9891 -82.4091 180° South  Level Estimated
06:19PM 22.9891 -82.4091 180° South  Level Estimated
06:20PM 22.9891 -82.4091 180° South  Level Estimated
06:21PM 22.9891 -82.4091 180° South  Level Estimated
06:22PM 22.9891 -82.4091 180° South  Level Estimated
06:23PM 22.9891 -82.4091 180° South  Level Estimated
06:24PM 22.9891 -82.4091 180° South  Level Estimated
06:25PM 22.9891 -82.4091 180° South  Level Estimated
06:26PM 22.9891 -82.4091 180° South  Level Estimated
06:27PM 22.9891 -82.4091 180° South  Level Estimated
06:28PM 22.9891 -82.4091 180° South  Level Estimated
06:29PM 22.9891 -82.4091 180° South  Level Estimated
06:30PM 22.9891 -82.4091 180° South  Level Estimated
06:31PM 22.9891 -82.4091 180° South  Level Estimated
06:32PM 22.9891 -82.4091 180° South  Level Estimated
06:33PM 22.9891 -82.4091 180° South  Level Estimated
06:34PM 22.9891 -82.4091 180° South  Level Estimated
06:35PM 22.9891 -82.4091 180° South  Level Estimated
06:36PM 22.9891 -82.4091 180° South  Level Estimated